createdAt,value
2023-12-31T00:00:45.053Z,96.58
2023-12-31T00:03:12.426Z,96.58
2023-12-31T00:05:39.757Z,96.42
2023-12-31T00:08:07.288Z,96.42
2023-12-31T00:10:34.592Z,96.36
2023-12-31T00:13:02.064Z,96.17
2023-12-31T00:15:29.433Z,96.18
2023-12-31T00:17:56.954Z,96.00
2023-12-31T00:20:32.557Z,96.04
2023-12-31T00:22:59.851Z,96.03
2023-12-31T00:25:27.254Z,95.97
2023-12-31T00:27:54.605Z,95.91
2023-12-31T00:30:23.415Z,95.94
2023-12-31T00:32:50.812Z,95.86
2023-12-31T00:35:18.045Z,95.78
2023-12-31T00:37:45.289Z,95.66
2023-12-31T00:40:12.984Z,95.68
2023-12-31T00:42:41.181Z,95.68
2023-12-31T00:45:09.479Z,95.62
2023-12-31T00:47:38.015Z,95.51
2023-12-31T00:50:05.554Z,95.52
2023-12-31T00:52:32.697Z,95.50
2023-12-31T00:55:00.004Z,95.42
2023-12-31T00:57:27.205Z,95.36
2023-12-31T00:59:54.442Z,95.31
2023-12-31T01:02:21.612Z,95.24
2023-12-31T01:04:49.022Z,95.23
2023-12-31T01:07:16.614Z,95.00
2023-12-31T01:09:43.980Z,94.92
2023-12-31T01:12:11.170Z,94.98
2023-12-31T01:14:38.725Z,94.92
2023-12-31T01:17:06.106Z,94.86
2023-12-31T01:19:33.789Z,94.66
2023-12-31T01:22:01.127Z,94.65
2023-12-31T01:24:28.455Z,94.63
2023-12-31T01:26:55.710Z,94.58
2023-12-31T01:29:22.967Z,94.58
2023-12-31T01:31:50.192Z,94.56
2023-12-31T01:34:17.554Z,94.23
2023-12-31T01:36:44.820Z,94.30
2023-12-31T01:39:12.073Z,94.31
2023-12-31T01:41:39.842Z,94.14
2023-12-31T01:44:08.284Z,94.17
2023-12-31T01:46:36.637Z,94.04
2023-12-31T01:49:04.208Z,94.08
2023-12-31T01:51:33.256Z,93.78
2023-12-31T01:54:03.419Z,93.84
2023-12-31T01:56:35.011Z,93.72
2023-12-31T01:59:03.418Z,93.74
2023-12-31T02:01:32.296Z,93.56
2023-12-31T02:03:59.732Z,93.44
2023-12-31T02:06:28.011Z,93.46
2023-12-31T02:08:55.334Z,93.32
2023-12-31T02:11:22.736Z,93.42
2023-12-31T02:13:50.018Z,93.30
2023-12-31T02:16:17.731Z,93.33
2023-12-31T02:18:46.990Z,93.27
2023-12-31T02:21:15.473Z,93.08
2023-12-31T02:23:43.413Z,93.11
2023-12-31T02:26:12.586Z,93.15
2023-12-31T02:28:41.117Z,93.14
2023-12-31T02:31:08.689Z,93.06
2023-12-31T02:33:36.167Z,92.99
2023-12-31T02:36:04.091Z,92.95
2023-12-31T02:38:31.333Z,93.01
2023-12-31T02:40:58.536Z,93.00
2023-12-31T02:43:25.886Z,92.97
2023-12-31T02:45:53.191Z,92.88
2023-12-31T02:48:22.364Z,92.85
2023-12-31T02:50:49.660Z,92.79
2023-12-31T02:53:16.916Z,92.72
2023-12-31T02:55:44.147Z,92.63
2023-12-31T02:58:11.428Z,92.48
2023-12-31T03:00:38.900Z,92.34
2023-12-31T03:03:06.434Z,92.35
2023-12-31T03:05:33.939Z,92.42
2023-12-31T03:08:01.219Z,92.47
2023-12-31T03:10:29.187Z,92.44
2023-12-31T03:12:56.391Z,92.34
2023-12-31T03:15:24.227Z,92.39
2023-12-31T03:17:51.620Z,92.38
2023-12-31T03:20:19.105Z,92.39
2023-12-31T03:22:48.247Z,92.37
2023-12-31T03:25:15.745Z,92.30
2023-12-31T03:27:43.333Z,92.28
2023-12-31T03:30:11.160Z,92.14
2023-12-31T03:32:38.466Z,91.99
2023-12-31T03:35:05.960Z,92.06
2023-12-31T03:37:33.371Z,92.16
2023-12-31T03:40:00.707Z,92.23
2023-12-31T03:42:27.958Z,92.14
2023-12-31T03:44:55.162Z,92.02
2023-12-31T03:47:22.390Z,92.13
2023-12-31T03:49:49.631Z,92.25
2023-12-31T03:52:17.580Z,92.34
2023-12-31T03:54:44.880Z,92.44
2023-12-31T03:57:12.033Z,92.36
2023-12-31T03:59:40.268Z,92.43
2023-12-31T04:02:07.526Z,92.42
2023-12-31T04:04:35.034Z,92.44
2023-12-31T04:07:02.332Z,92.50
2023-12-31T04:09:29.665Z,92.40
2023-12-31T04:11:56.832Z,92.50
2023-12-31T04:14:24.111Z,92.43
2023-12-31T04:16:51.306Z,92.41
2023-12-31T04:19:18.701Z,92.40
2023-12-31T04:21:46.075Z,92.40
2023-12-31T04:24:13.334Z,92.34
2023-12-31T04:26:45.962Z,92.50
2023-12-31T04:29:13.379Z,92.53
2023-12-31T04:31:48.004Z,92.55
2023-12-31T04:34:16.353Z,92.59
2023-12-31T04:36:47.003Z,92.50
2023-12-31T04:39:14.473Z,92.46
2023-12-31T04:41:41.654Z,92.50
2023-12-31T04:44:08.953Z,92.56
2023-12-31T04:46:36.283Z,92.59
2023-12-31T04:49:03.730Z,92.64
2023-12-31T04:51:31.930Z,92.56
2023-12-31T04:53:59.717Z,92.52
2023-12-31T04:56:28.363Z,92.34
2023-12-31T04:58:57.750Z,92.23
2023-12-31T05:01:25.131Z,92.21
2023-12-31T05:03:52.509Z,92.16
2023-12-31T05:06:19.757Z,92.09
2023-12-31T05:08:47.683Z,92.19
2023-12-31T05:11:15.850Z,92.10
2023-12-31T05:13:44.476Z,92.22
2023-12-31T05:16:16.769Z,92.37
2023-12-31T05:18:47.761Z,92.42
2023-12-31T05:21:15.146Z,92.50
2023-12-31T05:23:42.305Z,92.47
2023-12-31T05:26:09.578Z,92.46
2023-12-31T05:28:37.321Z,92.41
2023-12-31T05:31:04.768Z,92.40
2023-12-31T05:33:31.963Z,92.34
2023-12-31T05:35:59.240Z,92.31
2023-12-31T05:38:26.489Z,92.30
2023-12-31T05:40:53.709Z,92.36
2023-12-31T05:43:21.055Z,92.46
2023-12-31T05:45:48.326Z,92.51
2023-12-31T05:48:15.831Z,92.50
2023-12-31T05:50:43.552Z,92.47
2023-12-31T05:53:10.772Z,92.53
2023-12-31T05:55:38.048Z,92.76
2023-12-31T05:58:05.436Z,92.93
2023-12-31T06:00:34.362Z,92.98
2023-12-31T06:03:01.860Z,93.04
2023-12-31T06:05:29.484Z,93.17
2023-12-31T06:07:56.996Z,93.21
2023-12-31T06:10:24.340Z,93.35
2023-12-31T06:12:51.566Z,93.38
2023-12-31T06:15:18.836Z,93.37
2023-12-31T06:17:46.072Z,93.37
2023-12-31T06:20:13.362Z,93.40
2023-12-31T06:22:40.611Z,93.45
2023-12-31T06:25:08.120Z,93.41
2023-12-31T06:27:35.348Z,93.40
2023-12-31T06:30:02.544Z,93.43
2023-12-31T06:32:29.878Z,93.28
2023-12-31T06:34:57.178Z,93.27
2023-12-31T06:37:24.479Z,93.25
2023-12-31T06:39:52.465Z,93.30
2023-12-31T06:42:19.681Z,93.28
2023-12-31T06:44:46.944Z,93.28
2023-12-31T06:47:14.397Z,93.24
2023-12-31T06:49:41.638Z,93.21
2023-12-31T06:52:08.842Z,93.14
2023-12-31T06:54:36.017Z,93.16
2023-12-31T06:57:04.233Z,93.10
2023-12-31T06:59:32.498Z,93.13
2023-12-31T07:02:00.220Z,93.14
2023-12-31T07:04:27.844Z,93.14
2023-12-31T07:06:55.058Z,93.17
2023-12-31T07:09:22.327Z,93.23
2023-12-31T07:11:49.512Z,93.21
2023-12-31T07:14:16.719Z,93.18
2023-12-31T07:16:43.985Z,93.14
2023-12-31T07:19:11.369Z,93.15
2023-12-31T07:21:38.584Z,93.18
2023-12-31T07:24:05.960Z,93.17
2023-12-31T07:26:33.191Z,93.12
2023-12-31T07:29:09.679Z,93.04
2023-12-31T07:31:39.979Z,93.02
2023-12-31T07:34:08.248Z,92.98
2023-12-31T07:36:35.951Z,92.89
2023-12-31T07:39:05.598Z,92.82
2023-12-31T07:41:33.110Z,92.83
2023-12-31T07:44:01.845Z,92.81
2023-12-31T07:46:30.359Z,92.76
2023-12-31T07:48:58.265Z,92.62
2023-12-31T07:51:25.597Z,92.59
2023-12-31T07:53:53.649Z,92.59
2023-12-31T07:56:20.855Z,92.61
2023-12-31T07:58:48.262Z,92.58
2023-12-31T08:01:15.706Z,92.61
2023-12-31T08:03:43.129Z,92.54
2023-12-31T08:06:11.400Z,92.49
2023-12-31T08:08:39.007Z,92.43
2023-12-31T08:11:06.364Z,92.42
2023-12-31T08:13:34.518Z,92.37
2023-12-31T08:16:02.405Z,92.38
2023-12-31T08:18:29.784Z,92.35
2023-12-31T08:20:57.022Z,92.32
2023-12-31T08:23:24.185Z,92.29
2023-12-31T08:25:51.464Z,92.22
2023-12-31T08:28:18.702Z,92.27
2023-12-31T08:30:45.994Z,92.27
2023-12-31T08:33:13.373Z,92.25
2023-12-31T08:35:41.808Z,92.23
2023-12-31T08:38:09.137Z,92.18
2023-12-31T08:40:36.565Z,92.14
2023-12-31T08:43:05.057Z,92.11
2023-12-31T08:45:34.100Z,92.11
2023-12-31T08:48:01.412Z,92.11
2023-12-31T08:50:30.593Z,92.08
2023-12-31T08:52:57.952Z,92.16
2023-12-31T08:55:25.299Z,92.23
2023-12-31T08:57:52.725Z,92.36
2023-12-31T09:00:20.219Z,92.44
2023-12-31T09:02:48.621Z,92.49
2023-12-31T09:05:16.325Z,92.59
2023-12-31T09:07:44.033Z,92.65
2023-12-31T09:10:11.390Z,92.63
2023-12-31T09:12:38.950Z,92.62
2023-12-31T09:15:08.195Z,92.62
2023-12-31T09:17:37.186Z,92.62
2023-12-31T09:20:07.559Z,92.66
2023-12-31T09:22:35.112Z,92.66
2023-12-31T09:25:03.381Z,92.75
2023-12-31T09:27:30.947Z,92.77
2023-12-31T09:29:58.158Z,92.85
2023-12-31T09:32:25.387Z,92.92
2023-12-31T09:34:52.837Z,92.93
2023-12-31T09:37:21.248Z,92.92
2023-12-31T09:39:49.329Z,92.98
2023-12-31T09:42:51.169Z,92.98
2023-12-31T09:45:30.057Z,92.90
2023-12-31T09:48:01.547Z,92.78
2023-12-31T09:50:31.242Z,92.78
2023-12-31T09:52:59.565Z,92.86
2023-12-31T09:55:27.398Z,92.83
2023-12-31T09:57:55.129Z,92.72
2023-12-31T10:00:22.677Z,92.67
2023-12-31T10:02:53.320Z,92.61
2023-12-31T10:05:26.024Z,92.59
2023-12-31T10:07:56.477Z,92.63
2023-12-31T10:10:26.583Z,92.68
2023-12-31T10:12:53.794Z,92.68
2023-12-31T10:15:22.332Z,92.59
2023-12-31T10:17:49.694Z,92.56
2023-12-31T10:20:20.730Z,92.56
2023-12-31T10:22:49.810Z,92.63
2023-12-31T10:25:18.290Z,92.46
2023-12-31T10:27:49.987Z,92.58
2023-12-31T10:30:17.758Z,92.56
2023-12-31T10:32:45.561Z,92.58
2023-12-31T10:35:13.105Z,92.75
2023-12-31T10:37:41.591Z,92.76
2023-12-31T10:40:22.917Z,92.75
2023-12-31T10:42:54.181Z,92.76
2023-12-31T10:45:22.005Z,92.72
2023-12-31T10:47:55.205Z,92.70
2023-12-31T10:50:26.500Z,92.72
2023-12-31T10:52:56.971Z,92.75
2023-12-31T10:55:27.853Z,92.75
2023-12-31T10:57:55.172Z,92.69
2023-12-31T11:00:24.000Z,92.66
2023-12-31T11:02:52.622Z,92.63
2023-12-31T11:05:23.347Z,92.59
2023-12-31T11:07:51.430Z,92.57
2023-12-31T11:10:18.993Z,92.53
2023-12-31T11:12:50.306Z,92.63
2023-12-31T11:15:21.840Z,92.59
2023-12-31T11:18:10.853Z,92.54
2023-12-31T11:20:54.778Z,92.55
2023-12-31T11:23:48.387Z,92.53
2023-12-31T11:26:15.661Z,92.51
2023-12-31T11:28:50.362Z,92.50
2023-12-31T11:31:18.208Z,92.54
2023-12-31T11:33:46.087Z,92.50
2023-12-31T11:36:15.251Z,92.53
2023-12-31T11:38:58.304Z,92.56
2023-12-31T11:41:45.060Z,92.60
2023-12-31T11:44:39.636Z,92.52
2023-12-31T11:47:16.087Z,92.61
2023-12-31T11:49:47.645Z,92.57
2023-12-31T11:52:14.940Z,92.53
2023-12-31T11:54:42.477Z,92.61
2023-12-31T11:57:15.130Z,92.56
2023-12-31T11:59:45.474Z,92.56
2023-12-31T12:02:13.073Z,92.50
2023-12-31T12:04:40.375Z,92.46
2023-12-31T12:07:07.772Z,92.52
2023-12-31T12:09:36.031Z,92.53
2023-12-31T12:12:06.588Z,92.55
2023-12-31T12:14:35.203Z,92.56
2023-12-31T12:17:04.481Z,92.56
2023-12-31T12:19:37.820Z,92.54
2023-12-31T12:22:05.541Z,92.62
2023-12-31T12:24:33.043Z,92.65
2023-12-31T12:27:05.590Z,92.66
2023-12-31T12:29:35.022Z,92.63
2023-12-31T12:32:04.757Z,92.69
2023-12-31T12:34:32.155Z,92.66
2023-12-31T12:37:00.759Z,92.58
2023-12-31T12:39:28.023Z,92.71
2023-12-31T12:41:55.316Z,92.77
2023-12-31T12:44:24.021Z,92.95
2023-12-31T12:46:52.849Z,92.84
2023-12-31T12:49:21.612Z,92.63
2023-12-31T12:51:49.293Z,92.80
2023-12-31T12:54:16.641Z,93.01
2023-12-31T12:56:46.444Z,93.14
2023-12-31T12:59:14.161Z,93.08
2023-12-31T13:01:41.552Z,92.97
2023-12-31T13:04:12.517Z,93.09
2023-12-31T13:06:40.584Z,93.17
2023-12-31T13:09:11.049Z,93.06
2023-12-31T13:11:39.604Z,92.89
2023-12-31T13:14:07.044Z,92.75
2023-12-31T13:16:40.773Z,92.68
2023-12-31T13:19:15.287Z,92.77
2023-12-31T13:21:42.909Z,92.90
2023-12-31T13:24:10.111Z,93.03
2023-12-31T13:26:37.276Z,93.06
2023-12-31T13:29:05.336Z,93.17
2023-12-31T13:31:33.169Z,93.20
2023-12-31T13:34:00.880Z,93.24
2023-12-31T13:36:28.443Z,93.27
2023-12-31T13:38:55.871Z,93.27
2023-12-31T13:41:25.358Z,93.21
2023-12-31T13:43:52.743Z,93.21
2023-12-31T13:46:20.197Z,93.14
2023-12-31T13:48:47.902Z,93.27
2023-12-31T13:51:15.733Z,93.41
2023-12-31T13:53:43.213Z,93.34
2023-12-31T13:56:10.440Z,93.50
2023-12-31T13:58:37.753Z,93.82
2023-12-31T14:01:05.218Z,93.77
2023-12-31T14:03:32.516Z,93.73
2023-12-31T14:05:59.774Z,93.76
2023-12-31T14:08:27.078Z,93.83
2023-12-31T14:10:54.721Z,93.75
2023-12-31T14:13:22.500Z,93.88
2023-12-31T14:15:52.631Z,93.99
2023-12-31T14:18:20.022Z,94.13
2023-12-31T14:20:47.368Z,94.34
2023-12-31T14:23:14.753Z,94.35
2023-12-31T14:25:42.164Z,94.39
2023-12-31T14:28:09.530Z,94.39
2023-12-31T14:30:37.446Z,94.53
2023-12-31T14:33:06.507Z,94.63
2023-12-31T14:35:33.917Z,94.55
2023-12-31T14:38:01.226Z,94.52
2023-12-31T14:40:28.768Z,94.46
2023-12-31T14:42:56.244Z,94.40
2023-12-31T14:45:23.645Z,94.32
2023-12-31T14:47:51.019Z,94.21
2023-12-31T14:50:18.437Z,94.20
2023-12-31T14:52:48.395Z,94.22
2023-12-31T14:55:18.324Z,94.14
2023-12-31T14:57:45.482Z,94.07
2023-12-31T15:00:13.420Z,93.83
2023-12-31T15:02:41.113Z,93.60
2023-12-31T15:05:15.312Z,93.68
2023-12-31T15:07:45.724Z,93.76
2023-12-31T15:10:12.991Z,93.85
2023-12-31T15:12:41.129Z,93.88
2023-12-31T15:15:09.001Z,93.84
2023-12-31T15:17:36.402Z,93.85
2023-12-31T15:20:04.811Z,93.77
2023-12-31T15:22:32.242Z,93.75
2023-12-31T15:24:59.553Z,93.58
2023-12-31T15:27:26.817Z,93.21
2023-12-31T15:29:54.086Z,93.06
2023-12-31T15:32:21.322Z,93.28
2023-12-31T15:34:48.581Z,93.48
2023-12-31T15:37:15.816Z,93.66
2023-12-31T15:39:43.817Z,93.75
2023-12-31T15:42:11.213Z,93.82
2023-12-31T15:44:38.377Z,93.88
2023-12-31T15:47:05.703Z,93.88
2023-12-31T15:49:33.465Z,93.84
2023-12-31T15:52:00.928Z,93.82
2023-12-31T15:54:28.276Z,93.72
2023-12-31T15:56:55.592Z,93.74
2023-12-31T15:59:22.933Z,93.68
2023-12-31T16:01:50.376Z,93.80
2023-12-31T16:04:17.570Z,93.84
2023-12-31T16:06:44.944Z,93.84
2023-12-31T16:09:12.169Z,93.91
2023-12-31T16:11:40.024Z,93.93
2023-12-31T16:14:07.254Z,93.95
2023-12-31T16:16:34.888Z,94.05
2023-12-31T16:19:02.688Z,93.98
2023-12-31T16:21:30.137Z,93.98
2023-12-31T16:23:57.311Z,93.59
2023-12-31T16:26:24.660Z,93.27
2023-12-31T16:28:51.898Z,93.15
2023-12-31T16:31:19.104Z,93.11
2023-12-31T16:33:46.359Z,93.06
2023-12-31T16:36:13.638Z,93.12
2023-12-31T16:38:41.101Z,93.17
2023-12-31T16:41:08.525Z,92.99
2023-12-31T16:43:39.111Z,93.11
2023-12-31T16:46:06.506Z,93.26
2023-12-31T16:48:33.985Z,93.30
2023-12-31T16:51:01.347Z,93.30
2023-12-31T16:53:28.933Z,93.09
2023-12-31T16:55:56.482Z,92.97
2023-12-31T16:58:23.894Z,93.11
2023-12-31T17:00:52.365Z,93.23
2023-12-31T17:03:20.278Z,93.33
2023-12-31T17:05:48.046Z,93.37
2023-12-31T17:08:15.655Z,93.40
2023-12-31T17:10:42.943Z,93.40
2023-12-31T17:13:10.193Z,93.37
2023-12-31T17:15:37.400Z,93.32
2023-12-31T17:18:05.122Z,93.21
2023-12-31T17:20:32.590Z,93.03
2023-12-31T17:22:59.906Z,93.00
2023-12-31T17:25:27.175Z,93.18
2023-12-31T17:27:54.627Z,93.27
2023-12-31T17:30:21.821Z,93.30
2023-12-31T17:32:49.247Z,93.08
2023-12-31T17:35:16.522Z,92.88
2023-12-31T17:37:43.920Z,92.74
2023-12-31T17:40:11.725Z,92.63
2023-12-31T17:42:38.936Z,92.67
2023-12-31T17:45:06.850Z,92.84
2023-12-31T17:47:34.185Z,92.88
2023-12-31T17:50:03.248Z,92.84
2023-12-31T17:52:30.625Z,92.77
2023-12-31T17:54:58.012Z,92.77
2023-12-31T17:57:25.195Z,92.56
2023-12-31T17:59:54.218Z,92.65
2023-12-31T18:02:22.535Z,92.41
2023-12-31T18:04:50.278Z,92.42
2023-12-31T18:07:17.800Z,92.39
2023-12-31T18:09:46.446Z,92.30
2023-12-31T18:12:13.702Z,92.32
2023-12-31T18:14:40.919Z,92.40
2023-12-31T18:17:08.218Z,92.47
2023-12-31T18:19:40.076Z,92.57
2023-12-31T18:22:07.637Z,92.63
2023-12-31T18:24:34.973Z,92.47
2023-12-31T18:27:02.217Z,92.60
2023-12-31T18:29:29.400Z,92.49
2023-12-31T18:31:56.664Z,92.14
2023-12-31T18:34:23.973Z,92.11
2023-12-31T18:36:53.008Z,91.90
2023-12-31T18:39:23.258Z,91.98
2023-12-31T18:41:50.701Z,91.96
2023-12-31T18:44:18.055Z,91.76
2023-12-31T18:46:45.570Z,91.82
2023-12-31T18:49:12.820Z,91.81
2023-12-31T18:51:42.685Z,91.85
2023-12-31T18:54:12.169Z,91.82
2023-12-31T18:56:39.423Z,91.71
2023-12-31T18:59:08.722Z,91.68
2023-12-31T19:01:36.161Z,91.66
2023-12-31T19:04:03.698Z,91.72
2023-12-31T19:06:31.104Z,91.78
2023-12-31T19:08:58.352Z,91.67
2023-12-31T19:11:26.118Z,91.61
2023-12-31T19:13:53.445Z,91.59
2023-12-31T19:16:20.688Z,91.55
2023-12-31T19:18:47.977Z,91.64
2023-12-31T19:21:20.183Z,91.56
2023-12-31T19:23:47.430Z,91.57
2023-12-31T19:26:14.639Z,91.55
2023-12-31T19:28:41.921Z,91.50
2023-12-31T19:31:09.117Z,91.82
2023-12-31T19:33:36.501Z,91.77
2023-12-31T19:36:04.375Z,91.68
2023-12-31T19:38:31.900Z,91.58
2023-12-31T19:40:59.960Z,91.53
2023-12-31T19:43:41.293Z,91.53
2023-12-31T19:46:15.776Z,91.51
2023-12-31T19:48:43.381Z,91.47
2023-12-31T19:51:10.780Z,91.43
2023-12-31T19:53:38.265Z,91.34
2023-12-31T19:56:06.251Z,91.31
2023-12-31T19:58:35.063Z,91.24
2023-12-31T20:01:02.891Z,91.29
2023-12-31T20:03:30.185Z,91.21
2023-12-31T20:05:57.508Z,91.24
2023-12-31T20:08:24.716Z,91.26
2023-12-31T20:10:52.655Z,91.21
2023-12-31T20:13:19.944Z,91.11
2023-12-31T20:15:49.100Z,91.21
2023-12-31T20:18:20.080Z,91.15
2023-12-31T20:20:47.406Z,91.11
2023-12-31T20:23:14.599Z,91.31
2023-12-31T20:25:44.892Z,91.34
2023-12-31T20:28:12.203Z,91.43
2023-12-31T20:30:39.899Z,91.62
2023-12-31T20:33:07.679Z,91.81
2023-12-31T20:35:35.279Z,91.87
2023-12-31T20:38:02.595Z,91.94
2023-12-31T20:40:29.785Z,91.79
2023-12-31T20:42:57.333Z,91.47
2023-12-31T20:45:27.593Z,91.40
2023-12-31T20:47:55.010Z,91.26
2023-12-31T20:50:26.357Z,91.20
2023-12-31T20:52:54.379Z,90.98
2023-12-31T20:55:22.060Z,91.03
2023-12-31T20:57:49.244Z,90.92
2023-12-31T21:00:16.846Z,90.99
2023-12-31T21:02:44.099Z,90.99
2023-12-31T21:05:11.415Z,90.95
2023-12-31T21:07:39.856Z,91.02
2023-12-31T21:10:07.623Z,90.95
2023-12-31T21:12:34.851Z,90.90
2023-12-31T21:15:02.235Z,90.82
2023-12-31T21:17:29.599Z,90.88
2023-12-31T21:19:56.855Z,90.70
2023-12-31T21:22:24.348Z,90.66
2023-12-31T21:24:51.590Z,90.68
2023-12-31T21:27:18.861Z,90.63
2023-12-31T21:29:46.030Z,90.64
2023-12-31T21:32:13.363Z,90.54
2023-12-31T21:34:40.711Z,90.44
2023-12-31T21:37:08.013Z,90.63
2023-12-31T21:39:35.234Z,90.65
2023-12-31T21:42:02.447Z,90.50
2023-12-31T21:44:31.397Z,90.53
2023-12-31T21:46:58.826Z,90.44
2023-12-31T21:49:26.535Z,90.73
2023-12-31T21:51:54.141Z,90.68
2023-12-31T21:54:21.455Z,90.66
2023-12-31T21:57:00.598Z,90.57
2023-12-31T21:59:30.775Z,90.56
2023-12-31T22:01:58.176Z,90.52
2023-12-31T22:04:25.464Z,90.56
2023-12-31T22:06:52.606Z,90.55
2023-12-31T22:09:19.915Z,90.52
2023-12-31T22:11:47.105Z,90.48
2023-12-31T22:14:14.338Z,90.54
2023-12-31T22:16:41.626Z,90.64
2023-12-31T22:19:09.052Z,90.57
2023-12-31T22:21:36.427Z,90.63
2023-12-31T22:24:03.963Z,90.63
2023-12-31T22:26:31.677Z,90.69
2023-12-31T22:28:58.988Z,90.65
2023-12-31T22:31:26.264Z,90.63
2023-12-31T22:33:53.896Z,90.73
2023-12-31T22:36:21.136Z,90.69
2023-12-31T22:38:48.356Z,90.60
2023-12-31T22:41:15.608Z,90.57
2023-12-31T22:43:43.007Z,90.57
2023-12-31T22:46:10.237Z,90.57
2023-12-31T22:48:37.452Z,90.45
2023-12-31T22:51:05.053Z,90.42
2023-12-31T22:53:32.244Z,90.53
2023-12-31T22:56:00.067Z,90.53
2023-12-31T22:58:27.350Z,90.41
2023-12-31T23:00:54.657Z,90.45
2023-12-31T23:03:21.892Z,90.51
2023-12-31T23:05:49.268Z,90.45
2023-12-31T23:08:16.553Z,90.41
2023-12-31T23:10:43.893Z,90.53
2023-12-31T23:13:11.188Z,90.50
2023-12-31T23:15:38.425Z,90.41
2023-12-31T23:18:06.098Z,90.44
2023-12-31T23:20:33.512Z,90.60
2023-12-31T23:23:00.809Z,90.63
2023-12-31T23:25:28.251Z,90.50
2023-12-31T23:27:55.510Z,90.45
2023-12-31T23:30:22.721Z,90.56
2023-12-31T23:32:49.965Z,90.56
2023-12-31T23:35:17.304Z,90.44
2023-12-31T23:37:44.745Z,90.39
2023-12-31T23:40:12.377Z,90.40
2023-12-31T23:42:39.671Z,90.37
2023-12-31T23:45:07.342Z,90.34
2023-12-31T23:47:34.544Z,90.36
2023-12-31T23:50:01.860Z,90.41
2023-12-31T23:52:29.165Z,90.42
2023-12-31T23:54:56.369Z,90.27
2023-12-31T23:57:23.525Z,90.21
2023-12-31T23:59:50.751Z,90.24
